CES0319 ZHHH-ZBTJ
Flight info
| Callsign | CES0319 |
|---|---|
| Flight time | N/A |
| Altitude | 29100 |
| Route | BENBI W56 GUVRI W85 OMDEK |
| Aircraft | B738/M-SDE2E3FGHIRWXY/LB1 |
Departure
| Time | N/A |
|---|---|
| Airport | Wuhan Tianhe International Airport (ZHHH) |
Arrival
| Time | 2026-04-17 01:53 |
|---|---|
| Airport | Tianjin Binhai International Airport (ZBTJ) |
| Time | Latitude | Longitude | Altitude | Speed | Heading |
|---|---|---|---|---|---|
| 2026-04-17 01:25 | 38.65553 | 116.13647 | 9993 ft | 290 kts | 90° |
| 2026-04-17 01:25 | 38.65412 | 116.16234 | 9742 ft | 290 kts | 90° |
| 2026-04-17 01:26 | 38.65289 | 116.18799 | 9492 ft | 289 kts | 89° |
| 2026-04-17 01:26 | 38.65199 | 116.21355 | 9244 ft | 288 kts | 89° |
| 2026-04-17 01:26 | 38.65131 | 116.23882 | 8998 ft | 287 kts | 88° |
| 2026-04-17 01:26 | 38.65067 | 116.26435 | 8893 ft | 284 kts | 88° |
| 2026-04-17 01:27 | 38.65006 | 116.28953 | 8885 ft | 288 kts | 88° |
| 2026-04-17 01:27 | 38.64943 | 116.31507 | 8881 ft | 289 kts | 88° |
| 2026-04-17 01:27 | 38.64876 | 116.34083 | 8882 ft | 287 kts | 88° |
| 2026-04-17 01:27 | 38.64817 | 116.36616 | 8885 ft | 286 kts | 86° |
| 2026-04-17 01:28 | 38.64995 | 116.39138 | 8886 ft | 283 kts | 73° |
| 2026-04-17 01:28 | 38.65511 | 116.41550 | 8834 ft | 282 kts | 68° |
| 2026-04-17 01:28 | 38.66140 | 116.43929 | 8707 ft | 280 kts | 67° |
| 2026-04-17 01:28 | 38.66753 | 116.46263 | 8583 ft | 279 kts | 67° |
| 2026-04-17 01:29 | 38.67343 | 116.48647 | 8456 ft | 280 kts | 68° |
| 2026-04-17 01:29 | 38.68462 | 116.53391 | 8206 ft | 280 kts | 69° |
| 2026-04-17 01:29 | 38.69022 | 116.55785 | 8080 ft | 280 kts | 69° |
| 2026-04-17 01:30 | 38.69580 | 116.58152 | 7954 ft | 280 kts | 69° |
| 2026-04-17 01:30 | 38.70144 | 116.60542 | 7833 ft | 279 kts | 69° |
| 2026-04-17 01:30 | 38.70701 | 116.62907 | 7710 ft | 279 kts | 69° |
| 2026-04-17 01:30 | 38.71257 | 116.65309 | 7581 ft | 279 kts | 70° |
| 2026-04-17 01:31 | 38.71798 | 116.67664 | 7459 ft | 279 kts | 70° |
| 2026-04-17 01:31 | 38.72349 | 116.70062 | 7333 ft | 279 kts | 70° |
| 2026-04-17 01:31 | 38.72898 | 116.72447 | 7207 ft | 278 kts | 70° |
| 2026-04-17 01:31 | 38.73442 | 116.74812 | 7082 ft | 278 kts | 70° |
| 2026-04-17 01:32 | 38.73985 | 116.77165 | 6957 ft | 278 kts | 70° |
| 2026-04-17 01:32 | 38.74532 | 116.79548 | 6830 ft | 277 kts | 70° |
| 2026-04-17 01:32 | 38.75072 | 116.81902 | 6705 ft | 277 kts | 70° |
| 2026-04-17 01:32 | 38.75612 | 116.84262 | 6579 ft | 277 kts | 70° |
| 2026-04-17 01:33 | 38.76155 | 116.86639 | 6457 ft | 277 kts | 70° |
| 2026-04-17 01:33 | 38.76698 | 116.89010 | 6337 ft | 278 kts | 70° |
| 2026-04-17 01:33 | 38.77236 | 116.91359 | 6212 ft | 276 kts | 70° |
| 2026-04-17 01:33 | 38.77777 | 116.93729 | 6090 ft | 275 kts | 70° |
| 2026-04-17 01:34 | 38.78310 | 116.96065 | 5967 ft | 275 kts | 71° |
| 2026-04-17 01:34 | 38.78849 | 116.98432 | 5841 ft | 275 kts | 71° |
| 2026-04-17 01:34 | 38.79226 | 117.00806 | 5713 ft | 277 kts | 84° |
| 2026-04-17 01:34 | 38.78989 | 117.03260 | 5587 ft | 280 kts | 108° |
| 2026-04-17 01:35 | 38.78259 | 117.05561 | 5480 ft | 277 kts | 114° |
| 2026-04-17 01:35 | 38.77468 | 117.07792 | 5354 ft | 277 kts | 114° |
| 2026-04-17 01:35 | 38.76686 | 117.10059 | 5232 ft | 275 kts | 112° |
| 2026-04-17 01:35 | 38.75944 | 117.12292 | 5112 ft | 275 kts | 112° |
| 2026-04-17 01:36 | 38.75209 | 117.14558 | 4991 ft | 274 kts | 112° |
| 2026-04-17 01:36 | 38.74491 | 117.16784 | 4899 ft | 272 kts | 112° |
| 2026-04-17 01:36 | 38.73783 | 117.19038 | 4876 ft | 271 kts | 108° |
| 2026-04-17 01:36 | 38.73383 | 117.21384 | 4868 ft | 271 kts | 89° |
| 2026-04-17 01:37 | 38.73699 | 117.23732 | 4870 ft | 267 kts | 65° |
| 2026-04-17 01:37 | 38.74494 | 117.25857 | 4878 ft | 267 kts | 60° |
| 2026-04-17 01:37 | 38.75338 | 117.27985 | 4870 ft | 267 kts | 61° |
| 2026-04-17 01:37 | 38.76149 | 117.30100 | 4866 ft | 267 kts | 61° |
| 2026-04-17 01:38 | 38.76960 | 117.32242 | 4866 ft | 266 kts | 62° |
| 2026-04-17 01:38 | 38.77788 | 117.34383 | 4867 ft | 266 kts | 58° |
| 2026-04-17 01:38 | 38.78833 | 117.36308 | 4875 ft | 263 kts | 42° |
| 2026-04-17 01:38 | 38.80281 | 117.37687 | 4890 ft | 259 kts | 23° |
| 2026-04-17 01:39 | 38.81942 | 117.38529 | 4877 ft | 257 kts | 13° |
| 2026-04-17 01:39 | 38.83686 | 117.38966 | 4869 ft | 253 kts | 359° |
| 2026-04-17 01:39 | 38.85436 | 117.38708 | 4878 ft | 250 kts | 342° |
| 2026-04-17 01:39 | 38.87040 | 117.37939 | 4882 ft | 248 kts | 334° |
| 2026-04-17 01:40 | 38.88616 | 117.37013 | 4877 ft | 250 kts | 333° |
| 2026-04-17 01:40 | 38.90186 | 117.36050 | 4782 ft | 250 kts | 332° |
| 2026-04-17 01:40 | 38.91757 | 117.35075 | 4671 ft | 249 kts | 332° |
| 2026-04-17 01:40 | 38.93319 | 117.34101 | 4567 ft | 249 kts | 332° |
| 2026-04-17 01:41 | 38.94873 | 117.33134 | 4470 ft | 250 kts | 332° |
| 2026-04-17 01:41 | 38.96453 | 117.32150 | 4368 ft | 250 kts | 332° |
| 2026-04-17 01:41 | 38.97999 | 117.31187 | 4268 ft | 250 kts | 332° |
| 2026-04-17 01:41 | 38.99579 | 117.30202 | 4167 ft | 249 kts | 332° |
| 2026-04-17 01:42 | 39.01136 | 117.29218 | 4068 ft | 249 kts | 332° |
| 2026-04-17 01:42 | 39.02691 | 117.28227 | 3972 ft | 250 kts | 332° |
| 2026-04-17 01:42 | 39.04239 | 117.27239 | 3892 ft | 248 kts | 331° |
| 2026-04-17 01:42 | 39.05786 | 117.26253 | 3880 ft | 248 kts | 332° |
| 2026-04-17 01:43 | 39.07334 | 117.25269 | 3878 ft | 250 kts | 332° |
| 2026-04-17 01:43 | 39.08954 | 117.24400 | 3873 ft | 251 kts | 342° |
| 2026-04-17 01:43 | 39.10685 | 117.24290 | 3869 ft | 256 kts | 12° |
| 2026-04-17 01:43 | 39.12294 | 117.25347 | 3878 ft | 261 kts | 40° |
| 2026-04-17 01:44 | 39.13467 | 117.27153 | 3877 ft | 262 kts | 57° |
| 2026-04-17 01:44 | 39.14331 | 117.29230 | 3762 ft | 264 kts | 63° |
| 2026-04-17 01:44 | 39.15120 | 117.31373 | 3634 ft | 261 kts | 64° |
| 2026-04-17 01:44 | 39.15794 | 117.33217 | 3525 ft | 261 kts | 64° |
| 2026-04-17 01:45 | 39.16580 | 117.35323 | 3401 ft | 261 kts | 63° |
| 2026-04-17 01:45 | 39.17374 | 117.37419 | 3275 ft | 260 kts | 63° |
| 2026-04-17 01:45 | 39.18173 | 117.39513 | 3153 ft | 259 kts | 63° |
| 2026-04-17 01:45 | 39.19038 | 117.41534 | 3024 ft | 258 kts | 54° |
| 2026-04-17 01:46 | 39.20303 | 117.43116 | 2905 ft | 255 kts | 26° |
| 2026-04-17 01:46 | 39.21979 | 117.43641 | 2887 ft | 239 kts | 356° |
| 2026-04-17 01:46 | 39.23559 | 117.43290 | 2856 ft | 224 kts | 340° |
| 2026-04-17 01:46 | 39.24965 | 117.42551 | 2784 ft | 214 kts | 332° |
| 2026-04-17 01:47 | 39.26279 | 117.41662 | 2697 ft | 211 kts | 329° |
| 2026-04-17 01:47 | 39.27558 | 117.40778 | 2586 ft | 207 kts | 329° |
| 2026-04-17 01:47 | 39.28698 | 117.39710 | 2459 ft | 205 kts | 311° |
| 2026-04-17 01:47 | 39.29332 | 117.38109 | 2337 ft | 202 kts | 279° |
| 2026-04-17 01:48 | 39.29331 | 117.36337 | 2210 ft | 193 kts | 260° |
| 2026-04-17 01:48 | 39.29004 | 117.34693 | 2074 ft | 183 kts | 252° |
| 2026-04-17 01:48 | 39.28622 | 117.33150 | 1950 ft | 181 kts | 252° |
| 2026-04-17 01:48 | 39.28255 | 117.31609 | 1899 ft | 179 kts | 253° |
| 2026-04-17 01:49 | 39.27896 | 117.30064 | 1892 ft | 182 kts | 253° |
| 2026-04-17 01:49 | 39.27477 | 117.28507 | 1884 ft | 181 kts | 242° |
| 2026-04-17 01:49 | 39.26666 | 117.27371 | 1868 ft | 168 kts | 206° |
| 2026-04-17 01:49 | 39.25570 | 117.26987 | 1892 ft | 164 kts | 186° |
| 2026-04-17 01:50 | 39.24432 | 117.27090 | 1884 ft | 167 kts | 160° |
| 2026-04-17 01:50 | 39.23449 | 117.27844 | 1954 ft | 161 kts | 148° |
| 2026-04-17 01:50 | 39.22421 | 117.28557 | 1896 ft | 166 kts | 158° |
| 2026-04-17 01:50 | 39.21363 | 117.29153 | 1707 ft | 169 kts | 157° |
| 2026-04-17 01:51 | 39.20314 | 117.29801 | 1461 ft | 161 kts | 155° |
| 2026-04-17 01:51 | 39.19339 | 117.30409 | 1257 ft | 155 kts | 156° |
| 2026-04-17 01:51 | 39.18361 | 117.31000 | 1071 ft | 151 kts | 156° |
| 2026-04-17 01:51 | 39.17424 | 117.31575 | 817 ft | 147 kts | 156° |
| 2026-04-17 01:52 | 39.16526 | 117.32124 | 666 ft | 142 kts | 156° |
| 2026-04-17 01:52 | 39.15612 | 117.32664 | 476 ft | 142 kts | 156° |
| 2026-04-17 01:52 | 39.14706 | 117.33216 | 244 ft | 145 kts | 155° |
| 2026-04-17 01:52 | 39.13824 | 117.33775 | 56 ft | 141 kts | 155° |
| 2026-04-17 01:53 | 39.12966 | 117.34302 | 17 ft | 130 kts | 155° |
| 2026-04-17 01:53 | 39.12364 | 117.34658 | 25 ft | 62 kts | 153° |
| 2026-04-17 01:53 | 39.12117 | 117.34809 | 24 ft | 30 kts | 155° |
| 2026-04-17 01:53 | 39.11925 | 117.34923 | 21 ft | 29 kts | 150° |
| 2026-04-17 01:54 | 39.11793 | 117.35103 | 17 ft | 26 kts | 125° |
| 2026-04-17 01:54 | 39.11784 | 117.35120 | 17 ft | 0 kts | 124° |
| 2026-04-17 01:54 | 39.11782 | 117.35123 | 17 ft | 1 kts | 124° |
| 2026-04-17 01:54 | 39.11766 | 117.35154 | 17 ft | 6 kts | 124° |
| 2026-04-17 01:55 | 39.11745 | 117.35204 | 17 ft | 5 kts | 103° |
| 2026-04-17 01:55 | 39.11754 | 117.35245 | 17 ft | 5 kts | 49° |
| 2026-04-17 01:55 | 39.11788 | 117.35265 | 18 ft | 5 kts | 1° |
| 2026-04-17 01:55 | 39.11830 | 117.35267 | 18 ft | 6 kts | 19° |
| 2026-04-17 01:56 | 39.11855 | 117.35311 | 19 ft | 6 kts | 63° |
| 2026-04-17 01:56 | 39.11882 | 117.35381 | 20 ft | 15 kts | 64° |
| 2026-04-17 01:56 | 39.11950 | 117.35563 | 19 ft | 25 kts | 65° |
| 2026-04-17 01:56 | 39.12024 | 117.35764 | 17 ft | 24 kts | 63° |
| 2026-04-17 01:57 | 39.12071 | 117.35888 | 17 ft | 0 kts | 49° |
| 2026-04-17 01:57 | 39.12092 | 117.35917 | 16 ft | 9 kts | 39° |
| 2026-04-17 01:57 | 39.12134 | 117.35857 | 16 ft | 13 kts | 257° |
| 2026-04-17 01:57 | 39.12155 | 117.35763 | 16 ft | 14 kts | 332° |
| 2026-04-17 01:58 | 39.12280 | 117.35691 | 15 ft | 15 kts | 341° |
| 2026-04-17 01:58 | 39.12282 | 117.35690 | 15 ft | 0 kts | 354° |
| 2026-04-17 01:58 | 39.12284 | 117.35690 | 15 ft | 1 kts | 2° |
| 2026-04-17 01:58 | 39.12312 | 117.35722 | 15 ft | 6 kts | 41° |
| 2026-04-17 01:59 | 39.12347 | 117.35751 | 14 ft | 5 kts | 31° |
| 2026-04-17 01:59 | 39.12374 | 117.35773 | 15 ft | 3 kts | 31° |
| 2026-04-17 01:59 | 39.12389 | 117.35783 | 15 ft | 1 kts | 30° |
| 2026-04-17 01:59 | 39.12395 | 117.35788 | 16 ft | 0 kts | 30° |
| 2026-04-17 02:00 | 39.12401 | 117.35792 | 16 ft | 2 kts | 30° |
| 2026-04-17 02:00 | 39.12408 | 117.35799 | 16 ft | 0 kts | 30° |
| 2026-04-17 02:00 | 39.12409 | 117.35799 | 16 ft | 0 kts | 30° |
| 2026-04-17 02:00 | 39.12410 | 117.35799 | 16 ft | 0 kts | 30° |